sensor_id;sensor_type;location;lat;lon;timestamp;P1;durP1;ratioP1;P2;durP2;ratioP2
12429;SDS011;6279;42.192;24.326;2023-10-13T00:01:30;10.93;;;5.47;;
12429;SDS011;6279;42.192;24.326;2023-10-13T00:03:55;12.10;;;5.60;;
12429;SDS011;6279;42.192;24.326;2023-10-13T00:06:20;10.40;;;6.13;;
12429;SDS011;6279;42.192;24.326;2023-10-13T00:08:46;10.33;;;5.80;;
12429;SDS011;6279;42.192;24.326;2023-10-13T00:11:12;9.00;;;5.27;;
12429;SDS011;6279;42.192;24.326;2023-10-13T00:13:38;7.43;;;5.10;;
12429;SDS011;6279;42.192;24.326;2023-10-13T00:16:22;10.40;;;5.80;;
12429;SDS011;6279;42.192;24.326;2023-10-13T00:18:52;9.03;;;5.07;;
12429;SDS011;6279;42.192;24.326;2023-10-13T00:21:22;7.43;;;4.90;;
12429;SDS011;6279;42.192;24.326;2023-10-13T00:24:07;7.60;;;5.33;;
12429;SDS011;6279;42.192;24.326;2023-10-13T00:26:39;10.23;;;5.43;;
12429;SDS011;6279;42.192;24.326;2023-10-13T00:29:08;8.13;;;5.20;;
12429;SDS011;6279;42.192;24.326;2023-10-13T00:31:37;8.43;;;5.43;;
12429;SDS011;6279;42.192;24.326;2023-10-13T00:34:05;8.73;;;4.63;;
12429;SDS011;6279;42.192;24.326;2023-10-13T00:36:41;10.23;;;5.27;;
12429;SDS011;6279;42.192;24.326;2023-10-13T00:39:33;7.83;;;4.87;;
12429;SDS011;6279;42.192;24.326;2023-10-13T00:42:01;8.13;;;5.00;;
12429;SDS011;6279;42.192;24.326;2023-10-13T00:44:42;6.97;;;5.47;;
12429;SDS011;6279;42.192;24.326;2023-10-13T00:47:10;8.33;;;4.70;;
12429;SDS011;6279;42.192;24.326;2023-10-13T00:49:56;6.87;;;5.00;;
12429;SDS011;6279;42.192;24.326;2023-10-13T00:52:21;7.67;;;5.70;;
12429;SDS011;6279;42.192;24.326;2023-10-13T00:54:47;13.20;;;5.67;;
12429;SDS011;6279;42.192;24.326;2023-10-13T00:57:13;11.10;;;5.63;;
12429;SDS011;6279;42.192;24.326;2023-10-13T00:59:52;11.47;;;5.97;;
12429;SDS011;6279;42.192;24.326;2023-10-13T01:02:18;9.60;;;5.97;;
12429;SDS011;6279;42.192;24.326;2023-10-13T01:05:06;12.27;;;5.87;;
12429;SDS011;6279;42.192;24.326;2023-10-13T01:07:35;7.03;;;5.43;;
12429;SDS011;6279;42.192;24.326;2023-10-13T01:10:04;9.27;;;5.43;;
12429;SDS011;6279;42.192;24.326;2023-10-13T01:12:30;11.37;;;5.43;;
12429;SDS011;6279;42.192;24.326;2023-10-13T01:14:56;9.07;;;5.70;;
12429;SDS011;6279;42.192;24.326;2023-10-13T01:17:22;20.90;;;5.50;;
12429;SDS011;6279;42.192;24.326;2023-10-13T01:19:48;9.67;;;6.03;;
12429;SDS011;6279;42.192;24.326;2023-10-13T01:22:14;8.97;;;5.63;;
12429;SDS011;6279;42.192;24.326;2023-10-13T01:24:39;11.07;;;5.37;;
12429;SDS011;6279;42.192;24.326;2023-10-13T01:27:05;6.70;;;5.63;;
12429;SDS011;6279;42.192;24.326;2023-10-13T01:29:48;6.20;;;5.20;;
12429;SDS011;6279;42.192;24.326;2023-10-13T01:32:19;6.30;;;4.97;;
12429;SDS011;6279;42.192;24.326;2023-10-13T01:34:45;10.77;;;5.47;;
12429;SDS011;6279;42.192;24.326;2023-10-13T01:37:12;9.07;;;4.63;;
12429;SDS011;6279;42.192;24.326;2023-10-13T01:39:37;7.13;;;5.73;;
12429;SDS011;6279;42.192;24.326;2023-10-13T01:42:03;11.03;;;5.07;;
12429;SDS011;6279;42.192;24.326;2023-10-13T01:44:28;6.53;;;5.40;;
12429;SDS011;6279;42.192;24.326;2023-10-13T01:46:55;10.20;;;5.10;;
12429;SDS011;6279;42.192;24.326;2023-10-13T01:49:24;8.80;;;5.00;;
12429;SDS011;6279;42.192;24.326;2023-10-13T01:51:50;9.60;;;4.70;;
12429;SDS011;6279;42.192;24.326;2023-10-13T01:54:16;8.67;;;6.00;;
12429;SDS011;6279;42.192;24.326;2023-10-13T01:56:41;7.03;;;4.97;;
12429;SDS011;6279;42.192;24.326;2023-10-13T01:59:12;7.63;;;4.90;;
12429;SDS011;6279;42.192;24.326;2023-10-13T02:01:38;8.80;;;5.17;;
12429;SDS011;6279;42.192;24.326;2023-10-13T02:04:06;8.53;;;5.53;;
12429;SDS011;6279;42.192;24.326;2023-10-13T02:06:33;6.90;;;5.60;;
12429;SDS011;6279;42.192;24.326;2023-10-13T02:09:10;11.37;;;6.50;;
12429;SDS011;6279;42.192;24.326;2023-10-13T02:11:41;7.37;;;5.27;;
12429;SDS011;6279;42.192;24.326;2023-10-13T02:14:10;9.10;;;5.60;;
12429;SDS011;6279;42.192;24.326;2023-10-13T02:16:37;14.20;;;5.90;;
12429;SDS011;6279;42.192;24.326;2023-10-13T02:19:05;8.60;;;5.03;;
12429;SDS011;6279;42.192;24.326;2023-10-13T02:21:31;11.60;;;5.93;;
12429;SDS011;6279;42.192;24.326;2023-10-13T02:23:59;13.73;;;6.00;;
12429;SDS011;6279;42.192;24.326;2023-10-13T02:26:31;11.20;;;5.67;;
12429;SDS011;6279;42.192;24.326;2023-10-13T02:28:57;9.47;;;6.30;;
12429;SDS011;6279;42.192;24.326;2023-10-13T02:31:26;7.80;;;5.53;;
12429;SDS011;6279;42.192;24.326;2023-10-13T02:33:52;11.77;;;6.20;;
12429;SDS011;6279;42.192;24.326;2023-10-13T02:36:18;8.30;;;5.60;;
12429;SDS011;6279;42.192;24.326;2023-10-13T02:38:50;8.83;;;5.13;;
12429;SDS011;6279;42.192;24.326;2023-10-13T02:41:17;7.43;;;5.37;;
12429;SDS011;6279;42.192;24.326;2023-10-13T02:43:54;7.37;;;5.10;;
12429;SDS011;6279;42.192;24.326;2023-10-13T02:46:21;8.20;;;5.57;;
12429;SDS011;6279;42.192;24.326;2023-10-13T02:48:47;7.97;;;5.53;;
12429;SDS011;6279;42.192;24.326;2023-10-13T02:51:18;7.90;;;5.90;;
12429;SDS011;6279;42.192;24.326;2023-10-13T02:53:50;7.80;;;5.60;;
12429;SDS011;6279;42.192;24.326;2023-10-13T02:56:17;12.30;;;5.53;;
12429;SDS011;6279;42.192;24.326;2023-10-13T02:58:47;9.90;;;5.90;;
12429;SDS011;6279;42.192;24.326;2023-10-13T03:01:17;7.97;;;5.00;;
12429;SDS011;6279;42.192;24.326;2023-10-13T03:03:48;8.27;;;5.30;;
12429;SDS011;6279;42.192;24.326;2023-10-13T03:06:20;7.07;;;5.13;;
12429;SDS011;6279;42.192;24.326;2023-10-13T03:08:57;8.50;;;5.73;;
12429;SDS011;6279;42.192;24.326;2023-10-13T03:11:26;10.07;;;5.73;;
12429;SDS011;6279;42.192;24.326;2023-10-13T03:13:57;9.77;;;5.70;;
12429;SDS011;6279;42.192;24.326;2023-10-13T03:16:22;12.23;;;5.53;;
12429;SDS011;6279;42.192;24.326;2023-10-13T03:18:48;8.83;;;5.60;;
12429;SDS011;6279;42.192;24.326;2023-10-13T03:21:21;6.60;;;5.13;;
12429;SDS011;6279;42.192;24.326;2023-10-13T03:23:55;12.13;;;5.30;;
12429;SDS011;6279;42.192;24.326;2023-10-13T03:26:21;9.50;;;5.13;;
12429;SDS011;6279;42.192;24.326;2023-10-13T03:28:47;7.27;;;5.63;;
12429;SDS011;6279;42.192;24.326;2023-10-13T03:31:20;11.10;;;5.80;;
12429;SDS011;6279;42.192;24.326;2023-10-13T03:33:50;7.90;;;5.60;;
12429;SDS011;6279;42.192;24.326;2023-10-13T03:36:21;11.43;;;6.47;;
12429;SDS011;6279;42.192;24.326;2023-10-13T03:39:13;10.57;;;5.53;;
12429;SDS011;6279;42.192;24.326;2023-10-13T03:41:39;11.03;;;5.43;;
12429;SDS011;6279;42.192;24.326;2023-10-13T03:44:05;7.33;;;5.70;;
12429;SDS011;6279;42.192;24.326;2023-10-13T03:46:37;8.43;;;5.50;;
12429;SDS011;6279;42.192;24.326;2023-10-13T03:49:06;7.00;;;4.90;;
12429;SDS011;6279;42.192;24.326;2023-10-13T03:51:34;9.17;;;5.30;;
12429;SDS011;6279;42.192;24.326;2023-10-13T03:54:04;7.70;;;5.60;;
12429;SDS011;6279;42.192;24.326;2023-10-13T03:56:32;13.60;;;5.77;;
12429;SDS011;6279;42.192;24.326;2023-10-13T03:59:07;9.80;;;5.50;;
12429;SDS011;6279;42.192;24.326;2023-10-13T04:01:47;9.70;;;6.10;;
12429;SDS011;6279;42.192;24.326;2023-10-13T04:04:27;9.73;;;6.50;;
12429;SDS011;6279;42.192;24.326;2023-10-13T04:07:08;11.47;;;6.03;;
12429;SDS011;6279;42.192;24.326;2023-10-13T04:09:35;14.13;;;6.57;;
12429;SDS011;6279;42.192;24.326;2023-10-13T04:12:05;11.97;;;7.03;;
12429;SDS011;6279;42.192;24.326;2023-10-13T04:14:44;12.93;;;6.57;;
12429;SDS011;6279;42.192;24.326;2023-10-13T04:17:28;14.73;;;6.40;;
12429;SDS011;6279;42.192;24.326;2023-10-13T04:19:56;9.90;;;6.10;;
12429;SDS011;6279;42.192;24.326;2023-10-13T04:22:34;14.93;;;6.53;;
12429;SDS011;6279;42.192;24.326;2023-10-13T04:25:18;12.93;;;6.17;;
12429;SDS011;6279;42.192;24.326;2023-10-13T04:28:04;9.77;;;5.80;;
12429;SDS011;6279;42.192;24.326;2023-10-13T04:30:43;16.37;;;7.00;;
12429;SDS011;6279;42.192;24.326;2023-10-13T04:33:13;10.93;;;5.63;;
12429;SDS011;6279;42.192;24.326;2023-10-13T04:36:06;10.17;;;6.03;;
12429;SDS011;6279;42.192;24.326;2023-10-13T04:38:47;11.60;;;6.30;;
12429;SDS011;6279;42.192;24.326;2023-10-13T04:44:11;13.73;;;7.00;;
12429;SDS011;6279;42.192;24.326;2023-10-13T04:47:00;9.30;;;6.30;;
12429;SDS011;6279;42.192;24.326;2023-10-13T04:49:26;9.80;;;6.40;;
12429;SDS011;6279;42.192;24.326;2023-10-13T04:52:15;9.50;;;6.00;;
12429;SDS011;6279;42.192;24.326;2023-10-13T04:55:00;10.80;;;5.90;;
12429;SDS011;6279;42.192;24.326;2023-10-13T04:57:36;13.57;;;6.20;;
12429;SDS011;6279;42.192;24.326;2023-10-13T05:00:10;11.33;;;6.30;;
12429;SDS011;6279;42.192;24.326;2023-10-13T05:02:37;11.23;;;5.83;;
12429;SDS011;6279;42.192;24.326;2023-10-13T05:05:10;9.40;;;6.30;;
12429;SDS011;6279;42.192;24.326;2023-10-13T05:07:47;6.80;;;5.87;;
12429;SDS011;6279;42.192;24.326;2023-10-13T05:10:31;10.90;;;6.40;;
12429;SDS011;6279;42.192;24.326;2023-10-13T05:13:16;12.23;;;6.53;;
12429;SDS011;6279;42.192;24.326;2023-10-13T05:15:59;12.57;;;6.00;;
12429;SDS011;6279;42.192;24.326;2023-10-13T05:18:43;10.30;;;6.53;;
12429;SDS011;6279;42.192;24.326;2023-10-13T05:21:28;11.60;;;6.67;;
12429;SDS011;6279;42.192;24.326;2023-10-13T05:24:12;16.40;;;8.40;;
12429;SDS011;6279;42.192;24.326;2023-10-13T05:26:57;18.87;;;10.90;;
12429;SDS011;6279;42.192;24.326;2023-10-13T05:29:41;14.30;;;7.40;;
12429;SDS011;6279;42.192;24.326;2023-10-13T05:32:26;13.93;;;7.07;;
12429;SDS011;6279;42.192;24.326;2023-10-13T05:35:11;13.93;;;6.47;;
12429;SDS011;6279;42.192;24.326;2023-10-13T05:37:55;9.63;;;6.20;;
12429;SDS011;6279;42.192;24.326;2023-10-13T05:40:39;14.53;;;6.13;;
12429;SDS011;6279;42.192;24.326;2023-10-13T05:43:23;7.70;;;4.77;;
12429;SDS011;6279;42.192;24.326;2023-10-13T05:46:07;14.47;;;6.70;;
12429;SDS011;6279;42.192;24.326;2023-10-13T05:48:51;8.07;;;5.57;;
12429;SDS011;6279;42.192;24.326;2023-10-13T05:51:23;9.83;;;5.00;;
12429;SDS011;6279;42.192;24.326;2023-10-13T05:53:59;8.83;;;5.13;;
12429;SDS011;6279;42.192;24.326;2023-10-13T05:56:46;11.03;;;4.43;;
12429;SDS011;6279;42.192;24.326;2023-10-13T05:59:32;7.47;;;4.53;;
12429;SDS011;6279;42.192;24.326;2023-10-13T06:02:20;10.27;;;4.90;;
12429;SDS011;6279;42.192;24.326;2023-10-13T06:05:05;12.67;;;4.87;;
12429;SDS011;6279;42.192;24.326;2023-10-13T06:07:51;7.03;;;5.10;;
12429;SDS011;6279;42.192;24.326;2023-10-13T06:10:36;7.00;;;4.63;;
12429;SDS011;6279;42.192;24.326;2023-10-13T06:13:20;8.10;;;5.23;;
12429;SDS011;6279;42.192;24.326;2023-10-13T06:16:05;10.33;;;5.87;;
12429;SDS011;6279;42.192;24.326;2023-10-13T06:18:52;12.00;;;5.87;;
12429;SDS011;6279;42.192;24.326;2023-10-13T06:21:36;10.60;;;4.87;;
12429;SDS011;6279;42.192;24.326;2023-10-13T06:24:21;6.27;;;4.53;;
12429;SDS011;6279;42.192;24.326;2023-10-13T06:27:04;7.50;;;4.57;;
12429;SDS011;6279;42.192;24.326;2023-10-13T06:29:48;6.80;;;4.70;;
12429;SDS011;6279;42.192;24.326;2023-10-13T06:32:14;8.00;;;4.30;;
12429;SDS011;6279;42.192;24.326;2023-10-13T06:34:41;9.67;;;4.97;;
12429;SDS011;6279;42.192;24.326;2023-10-13T06:37:13;8.17;;;4.70;;
12429;SDS011;6279;42.192;24.326;2023-10-13T06:39:55;8.30;;;4.67;;
12429;SDS011;6279;42.192;24.326;2023-10-13T06:42:22;13.07;;;5.43;;
12429;SDS011;6279;42.192;24.326;2023-10-13T06:44:52;9.20;;;4.53;;
12429;SDS011;6279;42.192;24.326;2023-10-13T06:47:21;6.20;;;4.57;;
12429;SDS011;6279;42.192;24.326;2023-10-13T06:49:47;7.30;;;4.60;;
12429;SDS011;6279;42.192;24.326;2023-10-13T06:52:16;6.87;;;4.43;;
12429;SDS011;6279;42.192;24.326;2023-10-13T06:54:42;10.30;;;4.30;;
12429;SDS011;6279;42.192;24.326;2023-10-13T06:57:08;11.43;;;4.87;;
12429;SDS011;6279;42.192;24.326;2023-10-13T06:59:39;7.60;;;4.67;;
12429;SDS011;6279;42.192;24.326;2023-10-13T07:02:06;11.53;;;4.70;;
12429;SDS011;6279;42.192;24.326;2023-10-13T07:04:35;10.23;;;5.23;;
12429;SDS011;6279;42.192;24.326;2023-10-13T07:07:07;12.40;;;5.03;;
12429;SDS011;6279;42.192;24.326;2023-10-13T07:09:36;7.67;;;5.03;;
12429;SDS011;6279;42.192;24.326;2023-10-13T07:12:02;9.50;;;4.83;;
12429;SDS011;6279;42.192;24.326;2023-10-13T07:14:31;9.83;;;5.30;;
12429;SDS011;6279;42.192;24.326;2023-10-13T07:17:02;12.83;;;5.03;;
12429;SDS011;6279;42.192;24.326;2023-10-13T07:19:30;11.60;;;4.97;;
12429;SDS011;6279;42.192;24.326;2023-10-13T07:22:00;6.78;;;4.88;;
12429;SDS011;6279;42.192;24.326;2023-10-13T07:24:46;6.82;;;4.43;;
12429;SDS011;6279;42.192;24.326;2023-10-13T07:27:20;10.20;;;5.47;;
12429;SDS011;6279;42.192;24.326;2023-10-13T07:29:50;10.10;;;5.15;;
12429;SDS011;6279;42.192;24.326;2023-10-13T07:32:35;11.68;;;6.07;;
12429;SDS011;6279;42.192;24.326;2023-10-13T07:35:01;11.95;;;4.72;;
12429;SDS011;6279;42.192;24.326;2023-10-13T07:37:30;14.25;;;5.20;;
12429;SDS011;6279;42.192;24.326;2023-10-13T07:39:57;9.48;;;5.20;;
12429;SDS011;6279;42.192;24.326;2023-10-13T07:42:25;10.77;;;5.32;;
12429;SDS011;6279;42.192;24.326;2023-10-13T07:44:57;12.32;;;4.70;;
12429;SDS011;6279;42.192;24.326;2023-10-13T07:47:23;8.52;;;4.90;;
12429;SDS011;6279;42.192;24.326;2023-10-13T07:49:51;7.95;;;4.93;;
12429;SDS011;6279;42.192;24.326;2023-10-13T07:52:17;11.98;;;4.68;;
12429;SDS011;6279;42.192;24.326;2023-10-13T07:54:45;11.40;;;5.43;;
12429;SDS011;6279;42.192;24.326;2023-10-13T07:57:17;8.48;;;5.07;;
12429;SDS011;6279;42.192;24.326;2023-10-13T07:59:43;11.07;;;4.30;;
12429;SDS011;6279;42.192;24.326;2023-10-13T08:02:18;8.88;;;4.72;;
12429;SDS011;6279;42.192;24.326;2023-10-13T08:05:13;8.65;;;4.60;;
12429;SDS011;6279;42.192;24.326;2023-10-13T08:07:49;9.45;;;4.43;;
12429;SDS011;6279;42.192;24.326;2023-10-13T08:10:21;5.57;;;4.05;;
12429;SDS011;6279;42.192;24.326;2023-10-13T08:12:52;7.03;;;4.25;;
12429;SDS011;6279;42.192;24.326;2023-10-13T08:15:19;12.13;;;4.47;;
12429;SDS011;6279;42.192;24.326;2023-10-13T08:17:57;10.25;;;4.25;;
12429;SDS011;6279;42.192;24.326;2023-10-13T08:20:24;7.05;;;3.95;;
12429;SDS011;6279;42.192;24.326;2023-10-13T08:22:55;9.32;;;4.53;;
12429;SDS011;6279;42.192;24.326;2023-10-13T08:25:38;8.40;;;4.05;;
12429;SDS011;6279;42.192;24.326;2023-10-13T08:28:22;5.10;;;3.65;;
12429;SDS011;6279;42.192;24.326;2023-10-13T08:31:05;7.55;;;4.28;;
12429;SDS011;6279;42.192;24.326;2023-10-13T08:33:47;8.23;;;4.07;;
12429;SDS011;6279;42.192;24.326;2023-10-13T08:36:13;9.27;;;4.25;;
12429;SDS011;6279;42.192;24.326;2023-10-13T08:38:55;8.25;;;4.35;;
12429;SDS011;6279;42.192;24.326;2023-10-13T08:41:24;5.95;;;4.50;;
12429;SDS011;6279;42.192;24.326;2023-10-13T08:43:49;9.80;;;3.70;;
12429;SDS011;6279;42.192;24.326;2023-10-13T08:46:16;8.40;;;4.40;;
12429;SDS011;6279;42.192;24.326;2023-10-13T08:48:57;9.57;;;3.88;;
12429;SDS011;6279;42.192;24.326;2023-10-13T08:51:35;7.22;;;3.42;;
12429;SDS011;6279;42.192;24.326;2023-10-13T08:54:10;10.35;;;4.13;;
12429;SDS011;6279;42.192;24.326;2023-10-13T08:56:45;10.05;;;4.63;;
12429;SDS011;6279;42.192;24.326;2023-10-13T08:59:21;20.95;;;7.65;;
12429;SDS011;6279;42.192;24.326;2023-10-13T09:01:48;8.77;;;5.07;;
12429;SDS011;6279;42.192;24.326;2023-10-13T09:04:17;12.30;;;5.13;;
12429;SDS011;6279;42.192;24.326;2023-10-13T09:06:50;9.93;;;5.15;;
12429;SDS011;6279;42.192;24.326;2023-10-13T09:12:10;11.60;;;5.60;;
12429;SDS011;6279;42.192;24.326;2023-10-13T09:14:37;12.70;;;5.53;;
12429;SDS011;6279;42.192;24.326;2023-10-13T09:17:07;12.00;;;5.13;;
12429;SDS011;6279;42.192;24.326;2023-10-13T09:19:47;10.18;;;4.90;;
12429;SDS011;6279;42.192;24.326;2023-10-13T09:25:00;9.10;;;6.25;;
12429;SDS011;6279;42.192;24.326;2023-10-13T09:27:38;9.20;;;6.45;;
12429;SDS011;6279;42.192;24.326;2023-10-13T09:30:04;9.65;;;5.80;;
12429;SDS011;6279;42.192;24.326;2023-10-13T09:33:01;16.33;;;6.85;;
12429;SDS011;6279;42.192;24.326;2023-10-13T09:35:30;14.43;;;8.95;;
12429;SDS011;6279;42.192;24.326;2023-10-13T09:37:59;13.85;;;6.97;;
12429;SDS011;6279;42.192;24.326;2023-10-13T09:40:27;9.20;;;6.35;;
12429;SDS011;6279;42.192;24.326;2023-10-13T09:42:53;10.93;;;5.47;;
12429;SDS011;6279;42.192;24.326;2023-10-13T09:45:31;11.57;;;5.32;;
12429;SDS011;6279;42.192;24.326;2023-10-13T09:48:36;5.90;;;5.18;;
12429;SDS011;6279;42.192;24.326;2023-10-13T09:51:13;14.55;;;5.40;;
12429;SDS011;6279;42.192;24.326;2023-10-13T09:53:46;9.23;;;4.68;;
12429;SDS011;6279;42.192;24.326;2023-10-13T09:56:25;8.57;;;4.85;;
12429;SDS011;6279;42.192;24.326;2023-10-13T09:59:05;8.73;;;4.95;;
12429;SDS011;6279;42.192;24.326;2023-10-13T10:01:37;8.15;;;4.25;;
12429;SDS011;6279;42.192;24.326;2023-10-13T10:04:15;9.18;;;4.93;;
12429;SDS011;6279;42.192;24.326;2023-10-13T10:06:56;8.73;;;4.18;;
12429;SDS011;6279;42.192;24.326;2023-10-13T10:09:29;8.20;;;4.20;;
12429;SDS011;6279;42.192;24.326;2023-10-13T10:18:17;8.05;;;4.22;;
12429;SDS011;6279;42.192;24.326;2023-10-13T10:20:44;5.72;;;3.70;;
12429;SDS011;6279;42.192;24.326;2023-10-13T10:23:26;14.68;;;4.57;;
12429;SDS011;6279;42.192;24.326;2023-10-13T10:25:54;7.85;;;4.00;;
12429;SDS011;6279;42.192;24.326;2023-10-13T10:28:36;7.57;;;4.35;;
12429;SDS011;6279;42.192;24.326;2023-10-13T10:31:06;5.80;;;3.83;;
12429;SDS011;6279;42.192;24.326;2023-10-13T10:33:37;8.40;;;4.50;;
12429;SDS011;6279;42.192;24.326;2023-10-13T10:36:03;9.63;;;3.97;;
12429;SDS011;6279;42.192;24.326;2023-10-13T10:38:30;6.60;;;4.38;;
12429;SDS011;6279;42.192;24.326;2023-10-13T10:43:23;6.38;;;3.40;;
12429;SDS011;6279;42.192;24.326;2023-10-13T10:45:51;6.97;;;4.40;;
12429;SDS011;6279;42.192;24.326;2023-10-13T10:48:16;5.22;;;3.92;;
12429;SDS011;6279;42.192;24.326;2023-10-13T10:50:52;5.85;;;4.13;;
12429;SDS011;6279;42.192;24.326;2023-10-13T10:53:22;7.80;;;3.85;;
12429;SDS011;6279;42.192;24.326;2023-10-13T10:56:03;9.43;;;3.63;;
12429;SDS011;6279;42.192;24.326;2023-10-13T10:58:33;6.32;;;4.10;;
12429;SDS011;6279;42.192;24.326;2023-10-13T11:01:08;7.70;;;3.80;;
12429;SDS011;6279;42.192;24.326;2023-10-13T11:03:52;8.88;;;4.15;;
12429;SDS011;6279;42.192;24.326;2023-10-13T11:06:27;7.97;;;3.65;;
12429;SDS011;6279;42.192;24.326;2023-10-13T11:09:05;8.45;;;3.67;;
12429;SDS011;6279;42.192;24.326;2023-10-13T11:11:49;7.10;;;4.22;;
12429;SDS011;6279;42.192;24.326;2023-10-13T11:14:25;5.57;;;3.50;;
12429;SDS011;6279;42.192;24.326;2023-10-13T11:16:52;5.90;;;3.90;;
12429;SDS011;6279;42.192;24.326;2023-10-13T11:19:20;8.23;;;3.85;;
12429;SDS011;6279;42.192;24.326;2023-10-13T11:22:15;5.93;;;3.60;;
12429;SDS011;6279;42.192;24.326;2023-10-13T11:25:04;5.72;;;3.63;;
12429;SDS011;6279;42.192;24.326;2023-10-13T11:27:37;6.35;;;3.88;;
12429;SDS011;6279;42.192;24.326;2023-10-13T11:30:21;6.15;;;3.75;;
12429;SDS011;6279;42.192;24.326;2023-10-13T11:33:24;6.63;;;3.60;;
12429;SDS011;6279;42.192;24.326;2023-10-13T11:35:53;5.95;;;3.38;;
12429;SDS011;6279;42.192;24.326;2023-10-13T11:41:00;5.72;;;4.15;;
12429;SDS011;6279;42.192;24.326;2023-10-13T11:43:30;4.90;;;4.00;;
12429;SDS011;6279;42.192;24.326;2023-10-13T11:46:00;5.43;;;3.92;;
12429;SDS011;6279;42.192;24.326;2023-10-13T11:48:41;7.85;;;3.63;;
12429;SDS011;6279;42.192;24.326;2023-10-13T11:51:11;9.27;;;3.80;;
12429;SDS011;6279;42.192;24.326;2023-10-13T11:53:49;6.43;;;3.75;;
12429;SDS011;6279;42.192;24.326;2023-10-13T11:56:21;8.95;;;3.97;;
12429;SDS011;6279;42.192;24.326;2023-10-13T11:58:46;12.18;;;3.75;;
12429;SDS011;6279;42.192;24.326;2023-10-13T12:01:12;9.57;;;4.05;;
12429;SDS011;6279;42.192;24.326;2023-10-13T12:03:38;7.68;;;3.40;;
12429;SDS011;6279;42.192;24.326;2023-10-13T12:06:23;9.85;;;4.30;;
12429;SDS011;6279;42.192;24.326;2023-10-13T12:09:23;6.47;;;3.67;;
12429;SDS011;6279;42.192;24.326;2023-10-13T12:11:57;6.13;;;3.50;;
12429;SDS011;6279;42.192;24.326;2023-10-13T12:14:26;7.03;;;4.28;;
12429;SDS011;6279;42.192;24.326;2023-10-13T12:17:17;5.97;;;3.90;;
12429;SDS011;6279;42.192;24.326;2023-10-13T12:19:51;9.10;;;4.22;;
12429;SDS011;6279;42.192;24.326;2023-10-13T12:22:16;7.30;;;4.03;;
12429;SDS011;6279;42.192;24.326;2023-10-13T12:24:50;6.65;;;3.58;;
12429;SDS011;6279;42.192;24.326;2023-10-13T12:27:18;8.15;;;3.40;;
12429;SDS011;6279;42.192;24.326;2023-10-13T12:29:47;6.20;;;3.08;;
12429;SDS011;6279;42.192;24.326;2023-10-13T12:32:17;4.82;;;3.65;;
12429;SDS011;6279;42.192;24.326;2023-10-13T12:34:48;8.02;;;3.65;;
12429;SDS011;6279;42.192;24.326;2023-10-13T12:37:29;8.73;;;3.55;;
12429;SDS011;6279;42.192;24.326;2023-10-13T12:40:01;10.07;;;4.60;;
12429;SDS011;6279;42.192;24.326;2023-10-13T12:42:53;8.00;;;4.72;;
12429;SDS011;6279;42.192;24.326;2023-10-13T12:48:24;9.10;;;3.60;;
12429;SDS011;6279;42.192;24.326;2023-10-13T12:51:08;11.48;;;3.42;;
12429;SDS011;6279;42.192;24.326;2023-10-13T12:54:09;6.30;;;2.72;;
12429;SDS011;6279;42.192;24.326;2023-10-13T12:56:43;7.03;;;3.13;;
12429;SDS011;6279;42.192;24.326;2023-10-13T12:59:09;5.70;;;3.10;;
12429;SDS011;6279;42.192;24.326;2023-10-13T13:01:38;7.70;;;3.65;;
12429;SDS011;6279;42.192;24.326;2023-10-13T13:04:08;6.47;;;3.38;;
12429;SDS011;6279;42.192;24.326;2023-10-13T13:06:48;3.75;;;3.17;;
12429;SDS011;6279;42.192;24.326;2023-10-13T13:09:15;5.13;;;3.30;;
12429;SDS011;6279;42.192;24.326;2023-10-13T13:11:41;6.32;;;3.35;;
12429;SDS011;6279;42.192;24.326;2023-10-13T13:14:06;8.00;;;3.67;;
12429;SDS011;6279;42.192;24.326;2023-10-13T13:16:35;4.57;;;3.15;;
12429;SDS011;6279;42.192;24.326;2023-10-13T13:19:03;5.70;;;3.40;;
12429;SDS011;6279;42.192;24.326;2023-10-13T13:21:38;5.97;;;3.08;;
12429;SDS011;6279;42.192;24.326;2023-10-13T13:24:04;8.40;;;3.53;;
12429;SDS011;6279;42.192;24.326;2023-10-13T13:26:35;9.65;;;3.47;;
12429;SDS011;6279;42.192;24.326;2023-10-13T13:29:05;5.07;;;3.17;;
12429;SDS011;6279;42.192;24.326;2023-10-13T13:31:34;4.53;;;3.50;;
12429;SDS011;6279;42.192;24.326;2023-10-13T13:34:06;4.75;;;3.08;;
12429;SDS011;6279;42.192;24.326;2023-10-13T13:36:34;6.55;;;3.85;;
12429;SDS011;6279;42.192;24.326;2023-10-13T13:38:59;9.05;;;4.57;;
12429;SDS011;6279;42.192;24.326;2023-10-13T13:41:25;6.30;;;3.70;;
12429;SDS011;6279;42.192;24.326;2023-10-13T13:43:50;8.50;;;3.20;;
12429;SDS011;6279;42.192;24.326;2023-10-13T13:46:20;6.32;;;2.72;;
12429;SDS011;6279;42.192;24.326;2023-10-13T13:48:50;4.85;;;2.95;;
12429;SDS011;6279;42.192;24.326;2023-10-13T13:51:16;4.88;;;3.10;;
12429;SDS011;6279;42.192;24.326;2023-10-13T13:53:51;9.27;;;3.60;;
12429;SDS011;6279;42.192;24.326;2023-10-13T13:56:17;12.88;;;4.00;;
12429;SDS011;6279;42.192;24.326;2023-10-13T13:58:47;11.02;;;3.53;;
12429;SDS011;6279;42.192;24.326;2023-10-13T14:01:15;9.05;;;3.60;;
12429;SDS011;6279;42.192;24.326;2023-10-13T14:03:41;10.88;;;3.70;;
12429;SDS011;6279;42.192;24.326;2023-10-13T14:06:10;8.27;;;3.47;;
12429;SDS011;6279;42.192;24.326;2023-10-13T14:08:47;8.80;;;3.70;;
12429;SDS011;6279;42.192;24.326;2023-10-13T14:11:16;4.05;;;2.83;;
12429;SDS011;6279;42.192;24.326;2023-10-13T14:14:01;10.13;;;3.90;;
12429;SDS011;6279;42.192;24.326;2023-10-13T14:16:29;11.70;;;3.33;;
12429;SDS011;6279;42.192;24.326;2023-10-13T14:18:58;6.43;;;3.50;;
12429;SDS011;6279;42.192;24.326;2023-10-13T14:21:26;4.72;;;2.97;;
12429;SDS011;6279;42.192;24.326;2023-10-13T14:23:52;8.32;;;3.40;;
12429;SDS011;6279;42.192;24.326;2023-10-13T14:26:18;6.65;;;3.22;;
12429;SDS011;6279;42.192;24.326;2023-10-13T14:28:49;6.07;;;2.95;;
12429;SDS011;6279;42.192;24.326;2023-10-13T14:31:19;6.60;;;3.25;;
12429;SDS011;6279;42.192;24.326;2023-10-13T14:33:46;7.72;;;2.65;;
12429;SDS011;6279;42.192;24.326;2023-10-13T14:36:11;13.18;;;3.20;;
12429;SDS011;6279;42.192;24.326;2023-10-13T14:38:37;10.02;;;3.38;;
12429;SDS011;6279;42.192;24.326;2023-10-13T14:41:02;5.55;;;2.78;;
12429;SDS011;6279;42.192;24.326;2023-10-13T14:43:28;8.07;;;3.15;;
12429;SDS011;6279;42.192;24.326;2023-10-13T14:45:53;6.57;;;3.13;;
12429;SDS011;6279;42.192;24.326;2023-10-13T14:48:19;9.10;;;3.33;;
12429;SDS011;6279;42.192;24.326;2023-10-13T14:50:44;9.48;;;3.80;;
12429;SDS011;6279;42.192;24.326;2023-10-13T14:53:10;5.75;;;3.30;;
12429;SDS011;6279;42.192;24.326;2023-10-13T14:55:36;9.52;;;4.00;;
12429;SDS011;6279;42.192;24.326;2023-10-13T14:58:04;4.78;;;3.40;;
12429;SDS011;6279;42.192;24.326;2023-10-13T15:00:32;9.95;;;4.07;;
12429;SDS011;6279;42.192;24.326;2023-10-13T15:02:59;14.93;;;4.40;;
12429;SDS011;6279;42.192;24.326;2023-10-13T15:05:31;8.27;;;4.30;;
12429;SDS011;6279;42.192;24.326;2023-10-13T15:07:58;7.43;;;3.95;;
12429;SDS011;6279;42.192;24.326;2023-10-13T15:10:23;10.45;;;4.20;;
12429;SDS011;6279;42.192;24.326;2023-10-13T15:12:50;9.93;;;4.60;;
12429;SDS011;6279;42.192;24.326;2023-10-13T15:15:16;5.95;;;3.90;;
12429;SDS011;6279;42.192;24.326;2023-10-13T15:17:47;7.03;;;3.20;;
12429;SDS011;6279;42.192;24.326;2023-10-13T15:20:13;9.02;;;4.38;;
12429;SDS011;6279;42.192;24.326;2023-10-13T15:22:42;12.10;;;5.03;;
12429;SDS011;6279;42.192;24.326;2023-10-13T15:25:13;6.18;;;3.97;;
12429;SDS011;6279;42.192;24.326;2023-10-13T15:27:46;11.77;;;5.13;;
12429;SDS011;6279;42.192;24.326;2023-10-13T15:30:20;22.90;;;7.03;;
12429;SDS011;6279;42.192;24.326;2023-10-13T15:32:51;12.80;;;5.63;;
12429;SDS011;6279;42.192;24.326;2023-10-13T15:35:18;14.55;;;5.20;;
12429;SDS011;6279;42.192;24.326;2023-10-13T15:37:44;21.50;;;6.15;;
12429;SDS011;6279;42.192;24.326;2023-10-13T15:40:12;22.45;;;6.78;;